createdAt,value
2017-09-30T00:00:40.808Z,14.20
2017-09-30T00:03:15.434Z,14.20
2017-09-30T00:05:49.429Z,14.20
2017-09-30T00:08:23.320Z,14.10
2017-09-30T00:10:57.160Z,14.00
2017-09-30T00:13:30.941Z,14.10
2017-09-30T00:16:04.744Z,14.10
2017-09-30T00:18:38.581Z,14.10
2017-09-30T00:21:12.739Z,14.10
2017-09-30T00:23:46.552Z,14.10
2017-09-30T00:26:20.412Z,14.00
2017-09-30T00:28:54.354Z,14.00
2017-09-30T00:31:28.741Z,14.00
2017-09-30T00:34:02.684Z,14.00
2017-09-30T00:36:36.770Z,14.00
2017-09-30T00:39:11.393Z,13.90
2017-09-30T00:41:45.080Z,13.90
2017-09-30T00:44:18.806Z,13.90
2017-09-30T00:46:53.518Z,14.00
2017-09-30T00:49:27.520Z,13.90
2017-09-30T00:52:01.192Z,13.70
2017-09-30T00:54:35.882Z,13.60
2017-09-30T00:57:10.457Z,13.70
2017-09-30T00:59:44.211Z,13.70
2017-09-30T01:02:18.711Z,13.70
2017-09-30T01:04:52.573Z,13.70
2017-09-30T01:07:26.410Z,13.80
2017-09-30T01:10:00.987Z,13.80
2017-09-30T01:12:36.137Z,13.80
2017-09-30T01:15:10.095Z,13.80
2017-09-30T01:17:43.755Z,13.80
2017-09-30T01:20:18.448Z,13.80
2017-09-30T01:22:52.262Z,13.80
2017-09-30T01:25:26.932Z,13.80
2017-09-30T01:28:01.442Z,13.70
2017-09-30T01:30:35.376Z,13.70
2017-09-30T01:33:09.174Z,13.50
2017-09-30T01:35:42.956Z,13.50
2017-09-30T01:38:16.761Z,13.60
2017-09-30T01:40:50.614Z,13.60
2017-09-30T01:43:24.518Z,13.60
2017-09-30T01:45:58.244Z,13.60
2017-09-30T01:48:32.141Z,13.70
2017-09-30T01:51:05.831Z,13.70
2017-09-30T01:53:39.830Z,13.70
2017-09-30T01:56:13.672Z,13.70
2017-09-30T01:58:48.180Z,13.70
2017-09-30T02:01:22.803Z,13.70
2017-09-30T02:03:56.870Z,13.70
2017-09-30T02:06:30.896Z,13.70
2017-09-30T02:09:04.879Z,13.70
2017-09-30T02:11:38.669Z,13.70
2017-09-30T02:14:12.554Z,13.70
2017-09-30T02:16:46.590Z,13.70
2017-09-30T02:19:20.544Z,13.70
2017-09-30T02:21:55.374Z,13.70
2017-09-30T02:24:29.290Z,13.70
2017-09-30T02:27:03.999Z,13.60
2017-09-30T02:29:37.823Z,13.70
2017-09-30T02:32:11.485Z,13.60
2017-09-30T02:34:45.402Z,13.60
2017-09-30T02:37:19.299Z,13.60
2017-09-30T02:39:53.197Z,13.60
2017-09-30T02:42:27.071Z,13.50
2017-09-30T02:45:01.191Z,13.50
2017-09-30T02:47:34.858Z,13.60
2017-09-30T02:50:09.616Z,13.60
2017-09-30T02:52:43.491Z,13.60
2017-09-30T02:55:17.353Z,13.40
2017-09-30T02:57:51.957Z,13.50
2017-09-30T03:00:25.689Z,13.50
2017-09-30T03:02:59.627Z,13.50
2017-09-30T03:05:33.513Z,13.50
2017-09-30T03:08:07.490Z,13.50
2017-09-30T03:10:41.354Z,13.50
2017-09-30T03:13:15.210Z,13.50
2017-09-30T03:15:49.130Z,13.30
2017-09-30T03:18:23.018Z,13.20
2017-09-30T03:20:56.813Z,13.00
2017-09-30T03:23:31.015Z,13.10
2017-09-30T03:26:04.903Z,13.10
2017-09-30T03:28:39.358Z,13.30
2017-09-30T03:31:14.017Z,13.30
2017-09-30T03:33:47.849Z,13.30
2017-09-30T03:36:21.808Z,13.30
2017-09-30T03:38:55.675Z,13.20
2017-09-30T03:41:30.274Z,13.10
2017-09-30T03:44:04.948Z,13.20
2017-09-30T03:46:38.929Z,13.20
2017-09-30T03:49:12.811Z,13.20
2017-09-30T03:51:46.843Z,13.20
2017-09-30T03:54:20.891Z,13.20
2017-09-30T03:56:54.721Z,13.20
2017-09-30T03:59:28.785Z,13.20
2017-09-30T04:02:02.483Z,13.20
2017-09-30T04:04:36.430Z,13.10
2017-09-30T04:07:10.206Z,12.90
2017-09-30T04:09:44.750Z,13.00
2017-09-30T04:12:18.524Z,13.00
2017-09-30T04:14:52.370Z,13.00
2017-09-30T04:17:26.318Z,13.00
2017-09-30T04:20:00.208Z,13.00
2017-09-30T04:22:34.718Z,12.40
2017-09-30T04:25:08.571Z,12.40
2017-09-30T04:27:42.556Z,12.50
2017-09-30T04:30:16.384Z,12.40
2017-09-30T04:32:50.834Z,12.60
2017-09-30T04:35:24.790Z,12.60
2017-09-30T04:37:58.554Z,12.80
2017-09-30T04:40:32.451Z,12.80
2017-09-30T04:43:06.266Z,12.90
2017-09-30T04:45:40.090Z,12.90
2017-09-30T04:48:13.835Z,12.90
2017-09-30T04:50:47.764Z,12.90
2017-09-30T04:53:21.615Z,12.90
2017-09-30T04:55:55.448Z,13.00
2017-09-30T04:58:30.002Z,12.80
2017-09-30T05:01:03.745Z,12.80
2017-09-30T05:03:37.568Z,12.50
2017-09-30T05:06:12.137Z,12.60
2017-09-30T05:08:46.055Z,12.60
2017-09-30T05:11:19.935Z,12.70
2017-09-30T05:13:53.726Z,12.80
2017-09-30T05:16:27.809Z,12.80
2017-09-30T05:19:01.642Z,12.90
2017-09-30T05:21:35.684Z,12.90
2017-09-30T05:24:09.495Z,12.90
2017-09-30T05:26:44.004Z,12.90
2017-09-30T05:29:17.865Z,12.80
2017-09-30T05:31:51.585Z,12.90
2017-09-30T05:34:25.208Z,12.70
2017-09-30T05:36:59.038Z,12.70
2017-09-30T05:39:32.929Z,12.80
2017-09-30T05:42:07.501Z,12.80
2017-09-30T05:44:41.443Z,12.80
2017-09-30T05:47:16.093Z,12.80
2017-09-30T05:49:50.047Z,12.80
2017-09-30T05:52:24.027Z,12.80
2017-09-30T05:54:57.966Z,12.80
2017-09-30T05:57:31.871Z,12.80
2017-09-30T06:00:05.771Z,12.80
2017-09-30T06:02:39.856Z,12.70
2017-09-30T06:05:13.776Z,12.70
2017-09-30T06:07:48.543Z,12.80
2017-09-30T06:10:22.749Z,12.80
2017-09-30T06:12:57.007Z,12.90
2017-09-30T06:15:31.979Z,12.90
2017-09-30T06:18:06.735Z,12.90
2017-09-30T06:20:40.532Z,13.00
2017-09-30T06:23:14.737Z,12.90
2017-09-30T06:25:48.680Z,13.00
2017-09-30T06:28:22.666Z,13.00
2017-09-30T06:30:57.055Z,13.00
2017-09-30T06:33:31.193Z,13.00
2017-09-30T06:36:05.292Z,13.00
2017-09-30T06:38:39.325Z,13.00
2017-09-30T06:41:13.205Z,13.10
2017-09-30T06:43:47.002Z,13.20
2017-09-30T06:46:21.666Z,13.20
2017-09-30T06:48:57.128Z,13.20
2017-09-30T06:51:31.147Z,13.20
2017-09-30T06:54:05.757Z,12.90
2017-09-30T06:56:39.947Z,12.90
2017-09-30T06:59:14.546Z,13.10
2017-09-30T07:01:48.556Z,13.10
2017-09-30T07:04:23.283Z,13.20
2017-09-30T07:06:57.181Z,13.20
2017-09-30T07:09:32.005Z,13.20
2017-09-30T07:12:06.574Z,13.30
2017-09-30T07:14:40.545Z,13.20
2017-09-30T07:17:14.565Z,13.30
2017-09-30T07:19:48.643Z,13.30
2017-09-30T07:22:22.808Z,13.30
2017-09-30T07:24:56.782Z,13.20
2017-09-30T07:27:31.647Z,13.20
2017-09-30T07:30:05.711Z,13.20
2017-09-30T07:32:39.734Z,13.20
2017-09-30T07:35:13.685Z,13.40
2017-09-30T07:37:47.462Z,13.50
2017-09-30T07:40:21.409Z,13.50
2017-09-30T07:42:55.531Z,13.50
2017-09-30T07:45:29.624Z,13.40
2017-09-30T07:48:05.234Z,13.30
2017-09-30T07:50:39.059Z,13.20
2017-09-30T07:53:13.573Z,13.60
2017-09-30T07:55:47.257Z,13.50
2017-09-30T07:58:20.821Z,13.70
2017-09-30T08:00:54.377Z,13.80
2017-09-30T08:03:27.967Z,13.90
2017-09-30T08:06:01.583Z,13.90
2017-09-30T08:08:35.178Z,14.10
2017-09-30T08:11:08.925Z,14.20
2017-09-30T08:13:42.422Z,14.30
2017-09-30T08:16:16.005Z,14.40
2017-09-30T08:18:49.570Z,14.50
2017-09-30T08:21:23.309Z,14.60
2017-09-30T08:23:56.916Z,14.70
2017-09-30T08:26:30.653Z,14.70
2017-09-30T08:29:04.224Z,14.70
2017-09-30T08:31:37.813Z,14.70
2017-09-30T08:34:11.498Z,14.60
2017-09-30T08:36:45.950Z,14.80
2017-09-30T08:39:19.503Z,14.80
2017-09-30T08:41:53.055Z,14.90
2017-09-30T08:44:26.697Z,14.90
2017-09-30T08:47:00.307Z,14.90
2017-09-30T08:49:33.909Z,15.00
2017-09-30T08:52:07.444Z,15.10
2017-09-30T08:54:41.118Z,15.20
2017-09-30T08:57:14.635Z,15.30
2017-09-30T08:59:48.212Z,15.40
2017-09-30T09:02:22.571Z,15.50
2017-09-30T09:04:56.248Z,15.50
2017-09-30T09:07:30.025Z,15.50
2017-09-30T09:10:03.736Z,15.50
2017-09-30T09:12:38.055Z,15.60
2017-09-30T09:15:11.659Z,15.60
2017-09-30T09:17:45.262Z,15.60
2017-09-30T09:20:18.990Z,15.70
2017-09-30T09:22:52.566Z,15.90
2017-09-30T09:25:26.073Z,16.00
2017-09-30T09:27:59.689Z,16.00
2017-09-30T09:30:33.377Z,16.00
2017-09-30T09:33:07.185Z,16.10
2017-09-30T09:35:40.992Z,16.20
2017-09-30T09:38:14.852Z,16.30
2017-09-30T09:40:48.753Z,16.50
2017-09-30T09:43:23.337Z,16.60
2017-09-30T09:45:57.828Z,16.70
2017-09-30T09:48:31.429Z,16.70
2017-09-30T09:51:05.040Z,16.80
2017-09-30T09:53:38.632Z,16.80
2017-09-30T09:56:12.149Z,16.80
2017-09-30T09:58:45.850Z,16.80
2017-09-30T10:01:19.561Z,16.80
2017-09-30T10:03:53.149Z,16.80
2017-09-30T10:06:26.636Z,17.00
2017-09-30T10:09:00.979Z,17.10
2017-09-30T10:11:34.555Z,17.10
2017-09-30T10:14:08.290Z,17.10
2017-09-30T10:16:41.853Z,17.20
2017-09-30T10:19:15.482Z,17.10
2017-09-30T10:21:49.244Z,17.10
2017-09-30T10:24:22.961Z,17.20
2017-09-30T10:26:56.543Z,17.20
2017-09-30T10:29:30.373Z,17.30
2017-09-30T10:32:03.987Z,17.40
2017-09-30T10:34:37.705Z,17.40
2017-09-30T10:37:11.242Z,17.40
2017-09-30T10:39:44.880Z,17.50
2017-09-30T10:42:18.453Z,17.50
2017-09-30T10:44:52.904Z,17.70
2017-09-30T10:47:26.583Z,17.60
2017-09-30T10:50:00.200Z,17.80
2017-09-30T10:52:34.505Z,18.00
2017-09-30T10:55:08.250Z,18.00
2017-09-30T10:57:41.876Z,18.10
2017-09-30T11:00:15.602Z,18.20
2017-09-30T11:02:49.311Z,18.40
2017-09-30T11:05:23.961Z,18.40
2017-09-30T11:07:57.697Z,18.40
2017-09-30T11:10:32.192Z,18.60
2017-09-30T11:13:05.889Z,18.60
2017-09-30T11:15:39.651Z,18.60
2017-09-30T11:18:13.484Z,18.60
2017-09-30T11:20:47.226Z,18.60
2017-09-30T11:23:20.895Z,18.70
2017-09-30T11:25:54.550Z,18.80
2017-09-30T11:28:28.139Z,18.80
2017-09-30T11:31:01.925Z,18.90
2017-09-30T11:33:35.868Z,19.10
2017-09-30T11:36:09.624Z,19.20
2017-09-30T11:38:43.917Z,19.10
2017-09-30T11:41:17.550Z,19.10
2017-09-30T11:43:51.938Z,19.00
2017-09-30T11:46:25.615Z,19.00
2017-09-30T11:49:00.007Z,19.20
2017-09-30T11:51:33.576Z,19.10
2017-09-30T11:54:07.277Z,19.40
2017-09-30T11:56:40.848Z,19.40
2017-09-30T11:59:14.462Z,19.30
2017-09-30T12:01:48.069Z,19.40
2017-09-30T12:04:21.629Z,19.30
2017-09-30T12:06:56.095Z,19.30
2017-09-30T12:09:29.751Z,19.30
2017-09-30T12:12:03.528Z,19.30
2017-09-30T12:14:37.056Z,19.40
2017-09-30T12:17:11.515Z,19.50
2017-09-30T12:19:45.810Z,19.60
2017-09-30T12:22:19.501Z,19.50
2017-09-30T12:24:53.121Z,19.70
2017-09-30T12:27:26.771Z,19.80
2017-09-30T12:30:01.133Z,20.00
2017-09-30T12:32:34.952Z,20.00
2017-09-30T12:35:08.468Z,20.00
2017-09-30T12:37:42.049Z,19.90
2017-09-30T12:40:15.806Z,20.00
2017-09-30T12:42:49.409Z,20.00
2017-09-30T12:45:23.216Z,20.00
2017-09-30T12:47:56.825Z,20.30
2017-09-30T12:50:30.454Z,20.30
2017-09-30T12:53:04.157Z,20.30
2017-09-30T12:55:37.758Z,20.40
2017-09-30T12:58:11.389Z,20.40
2017-09-30T13:00:44.945Z,20.50
2017-09-30T13:03:18.661Z,20.60
2017-09-30T13:05:52.243Z,20.60
2017-09-30T13:08:25.806Z,20.50
2017-09-30T13:11:00.383Z,20.50
2017-09-30T13:13:34.895Z,20.70
2017-09-30T13:16:08.616Z,20.70
2017-09-30T13:18:42.120Z,20.60
2017-09-30T13:21:15.712Z,20.60
2017-09-30T13:23:49.255Z,20.60
2017-09-30T13:26:22.780Z,20.60
2017-09-30T13:28:57.235Z,21.20
2017-09-30T13:31:30.765Z,21.10
2017-09-30T13:34:04.390Z,21.10
2017-09-30T13:36:37.881Z,20.80
2017-09-30T13:39:11.544Z,20.90
2017-09-30T13:41:45.132Z,21.10
2017-09-30T13:44:18.655Z,21.10
2017-09-30T13:46:52.220Z,20.90
2017-09-30T13:49:25.827Z,20.70
2017-09-30T13:51:59.404Z,20.60
2017-09-30T13:54:33.021Z,20.70
2017-09-30T13:57:06.620Z,20.70
2017-09-30T13:59:40.216Z,20.60
2017-09-30T14:02:13.814Z,20.60
2017-09-30T14:04:47.453Z,20.60
2017-09-30T14:07:21.735Z,20.50
2017-09-30T14:09:55.302Z,20.50
2017-09-30T14:12:28.893Z,20.50
2017-09-30T14:15:02.629Z,20.50
2017-09-30T14:17:36.106Z,20.50
2017-09-30T14:20:09.662Z,20.50
2017-09-30T14:22:43.140Z,20.50
2017-09-30T14:25:16.658Z,20.30
2017-09-30T14:27:50.371Z,20.20
2017-09-30T14:30:23.888Z,20.30
2017-09-30T14:32:57.588Z,20.40
2017-09-30T14:35:31.302Z,20.40
2017-09-30T14:38:04.991Z,20.40
2017-09-30T14:40:38.864Z,20.40
2017-09-30T14:43:13.161Z,20.40
2017-09-30T14:45:47.709Z,20.30
2017-09-30T14:48:21.389Z,20.30
2017-09-30T14:50:54.992Z,20.20
2017-09-30T14:53:28.593Z,20.30
2017-09-30T14:56:02.390Z,20.40
2017-09-30T14:58:36.071Z,20.60
2017-09-30T15:01:10.428Z,20.60
2017-09-30T15:03:44.123Z,20.60
2017-09-30T15:06:17.696Z,20.50
2017-09-30T15:08:51.250Z,20.40
2017-09-30T15:11:24.969Z,20.40
2017-09-30T15:13:58.559Z,20.40
2017-09-30T15:16:32.168Z,20.40
2017-09-30T15:19:05.690Z,20.40
2017-09-30T15:21:39.266Z,20.40
2017-09-30T15:24:13.544Z,20.40
2017-09-30T15:26:47.169Z,20.40
2017-09-30T15:29:20.733Z,20.40
2017-09-30T15:31:54.347Z,20.40
2017-09-30T15:34:27.971Z,20.40
2017-09-30T15:37:01.546Z,20.40
2017-09-30T15:39:35.128Z,20.30
2017-09-30T15:42:08.745Z,20.30
2017-09-30T15:44:42.338Z,20.30
2017-09-30T15:47:15.956Z,20.20
2017-09-30T15:49:50.360Z,20.10
2017-09-30T15:52:23.884Z,20.00
2017-09-30T15:54:57.449Z,20.10
2017-09-30T15:57:31.153Z,20.00
2017-09-30T16:00:04.865Z,20.00
2017-09-30T16:02:38.391Z,20.00
2017-09-30T16:05:11.880Z,20.00
2017-09-30T16:07:45.372Z,20.00
2017-09-30T16:10:19.062Z,20.00
2017-09-30T16:12:52.608Z,19.90
2017-09-30T16:15:26.145Z,19.80
2017-09-30T16:17:59.753Z,19.80
2017-09-30T16:20:33.354Z,19.80
2017-09-30T16:23:07.019Z,19.80
2017-09-30T16:25:40.657Z,19.70
2017-09-30T16:28:14.261Z,19.80
2017-09-30T16:30:47.944Z,19.70
2017-09-30T16:33:21.703Z,19.70
2017-09-30T16:35:55.257Z,19.60
2017-09-30T16:38:28.824Z,19.60
2017-09-30T16:41:02.611Z,19.50
2017-09-30T16:43:36.217Z,19.50
2017-09-30T16:46:09.851Z,19.50
2017-09-30T16:48:43.451Z,19.40
2017-09-30T16:51:17.100Z,19.30
2017-09-30T16:53:50.702Z,19.30
2017-09-30T16:56:24.230Z,19.40
2017-09-30T16:58:57.895Z,19.30
2017-09-30T17:01:31.516Z,19.30
2017-09-30T17:04:05.101Z,19.30
2017-09-30T17:06:38.808Z,19.30
2017-09-30T17:09:12.371Z,19.20
2017-09-30T17:11:45.959Z,19.20
2017-09-30T17:14:19.506Z,19.10
2017-09-30T17:16:53.179Z,19.10
2017-09-30T17:19:26.874Z,19.10
2017-09-30T17:22:00.387Z,19.10
2017-09-30T17:24:34.013Z,19.00
2017-09-30T17:27:07.518Z,18.90
2017-09-30T17:29:41.229Z,19.00
2017-09-30T17:32:14.766Z,19.00
2017-09-30T17:34:48.350Z,18.90
2017-09-30T17:37:22.068Z,18.90
2017-09-30T17:39:55.592Z,18.80
2017-09-30T17:42:29.374Z,18.80
2017-09-30T17:45:03.649Z,18.70
2017-09-30T17:47:37.921Z,18.70
2017-09-30T17:50:11.643Z,18.70
2017-09-30T17:52:45.374Z,18.70
2017-09-30T17:55:18.943Z,18.60
2017-09-30T17:57:52.641Z,18.60
2017-09-30T18:00:26.191Z,18.50
2017-09-30T18:02:59.717Z,18.50
2017-09-30T18:05:34.082Z,18.40
2017-09-30T18:08:07.632Z,18.40
2017-09-30T18:10:41.173Z,18.00
2017-09-30T18:13:14.659Z,17.80
2017-09-30T18:15:48.168Z,17.80
2017-09-30T18:18:21.751Z,17.90
2017-09-30T18:20:55.399Z,18.00
2017-09-30T18:23:29.717Z,18.00
2017-09-30T18:26:04.205Z,18.00
2017-09-30T18:28:38.644Z,18.00
2017-09-30T18:31:12.989Z,17.90
2017-09-30T18:33:46.611Z,17.90
2017-09-30T18:36:20.952Z,17.90
2017-09-30T18:38:54.661Z,17.90
2017-09-30T18:41:28.205Z,17.90
2017-09-30T18:44:01.866Z,17.90
2017-09-30T18:46:35.586Z,17.80
2017-09-30T18:49:09.893Z,17.80
2017-09-30T18:51:44.209Z,17.70
2017-09-30T18:54:18.724Z,17.70
2017-09-30T18:56:52.327Z,17.60
2017-09-30T18:59:26.889Z,17.40
2017-09-30T19:02:00.649Z,17.40
2017-09-30T19:04:34.241Z,17.20
2017-09-30T19:07:07.950Z,16.80
2017-09-30T19:09:41.541Z,16.70
2017-09-30T19:12:15.260Z,16.80
2017-09-30T19:14:48.873Z,17.10
2017-09-30T19:17:22.566Z,17.00
2017-09-30T19:19:56.328Z,16.60
2017-09-30T19:22:30.888Z,16.40
2017-09-30T19:25:04.459Z,16.40
2017-09-30T19:27:37.976Z,16.50
2017-09-30T19:30:11.554Z,16.70
2017-09-30T19:32:45.189Z,16.80
2017-09-30T19:35:18.755Z,16.90
2017-09-30T19:37:52.329Z,16.90
2017-09-30T19:40:26.112Z,17.00
2017-09-30T19:42:59.691Z,16.90
2017-09-30T19:45:33.362Z,16.90
2017-09-30T19:48:06.980Z,16.80
2017-09-30T19:50:40.572Z,16.80
2017-09-30T19:53:14.169Z,16.70
2017-09-30T19:55:47.796Z,16.60
2017-09-30T19:58:21.408Z,16.60
2017-09-30T20:00:55.682Z,16.60
2017-09-30T20:03:30.031Z,16.50
2017-09-30T20:06:03.605Z,16.50
2017-09-30T20:08:37.205Z,16.30
2017-09-30T20:11:10.744Z,16.30
2017-09-30T20:13:44.452Z,16.40
2017-09-30T20:16:18.025Z,16.30
2017-09-30T20:18:51.611Z,16.40
2017-09-30T20:21:25.108Z,16.40
2017-09-30T20:23:58.630Z,16.40
2017-09-30T20:26:32.322Z,16.50
2017-09-30T20:29:05.842Z,16.60
2017-09-30T20:31:39.429Z,16.80
2017-09-30T20:34:13.120Z,17.00
2017-09-30T20:36:46.691Z,17.00
2017-09-30T20:39:20.328Z,17.00
2017-09-30T20:41:53.895Z,17.10
2017-09-30T20:44:27.431Z,17.00
2017-09-30T20:47:01.008Z,17.00
2017-09-30T20:49:34.648Z,17.00
2017-09-30T20:52:08.929Z,17.00
2017-09-30T20:54:42.464Z,17.00
2017-09-30T20:57:16.145Z,16.90
2017-09-30T20:59:49.685Z,16.70
2017-09-30T21:02:24.145Z,16.60
2017-09-30T21:04:57.809Z,16.60
2017-09-30T21:07:32.151Z,16.50
2017-09-30T21:10:05.915Z,16.50
2017-09-30T21:12:39.593Z,16.50
2017-09-30T21:15:13.186Z,16.40
2017-09-30T21:17:46.846Z,16.40
2017-09-30T21:20:20.500Z,16.30
2017-09-30T21:22:54.877Z,16.20
2017-09-30T21:25:28.692Z,16.20
2017-09-30T21:28:02.205Z,16.20
2017-09-30T21:30:35.863Z,16.20
2017-09-30T21:33:09.763Z,16.20
2017-09-30T21:35:43.474Z,16.10
2017-09-30T21:38:17.193Z,16.00
2017-09-30T21:40:50.704Z,16.00
2017-09-30T21:43:25.145Z,15.80
2017-09-30T21:45:58.911Z,15.70
2017-09-30T21:48:32.508Z,15.80
2017-09-30T21:51:06.158Z,15.90
2017-09-30T21:53:40.656Z,15.80
2017-09-30T21:56:14.391Z,15.80
2017-09-30T21:58:47.949Z,15.80
2017-09-30T22:01:21.672Z,15.80
2017-09-30T22:03:55.176Z,15.90
2017-09-30T22:06:28.912Z,15.80
2017-09-30T22:09:02.585Z,15.70
2017-09-30T22:11:36.891Z,15.50
2017-09-30T22:14:11.188Z,15.50
2017-09-30T22:16:45.732Z,15.30
2017-09-30T22:19:19.635Z,15.30
2017-09-30T22:21:53.907Z,15.20
2017-09-30T22:24:28.695Z,15.30
2017-09-30T22:27:03.708Z,15.30
2017-09-30T22:29:38.147Z,15.30
2017-09-30T22:32:12.244Z,15.30
2017-09-30T22:34:46.310Z,15.50
2017-09-30T22:37:20.862Z,15.70
2017-09-30T22:39:54.874Z,15.70
2017-09-30T22:42:29.134Z,15.80
2017-09-30T22:45:04.091Z,15.80
2017-09-30T22:47:38.290Z,15.60
2017-09-30T22:50:12.357Z,15.60
2017-09-30T22:52:47.333Z,15.90
2017-09-30T22:55:22.125Z,16.00
2017-09-30T22:57:57.330Z,16.10
2017-09-30T23:00:32.018Z,16.00
2017-09-30T23:03:06.298Z,16.00
2017-09-30T23:05:40.218Z,16.00
2017-09-30T23:08:15.043Z,16.00
2017-09-30T23:10:48.883Z,16.00
2017-09-30T23:13:22.657Z,16.00
2017-09-30T23:15:56.592Z,16.10
2017-09-30T23:18:30.571Z,16.00
2017-09-30T23:21:04.291Z,16.00
2017-09-30T23:23:38.762Z,16.10
2017-09-30T23:26:13.260Z,16.00
2017-09-30T23:28:47.101Z,16.00
2017-09-30T23:31:21.760Z,15.90
2017-09-30T23:33:56.420Z,15.80
2017-09-30T23:36:30.454Z,15.80
2017-09-30T23:39:04.424Z,15.90
2017-09-30T23:41:38.988Z,15.90
2017-09-30T23:44:13.736Z,15.90
2017-09-30T23:46:47.828Z,15.90
2017-09-30T23:49:21.728Z,15.90
2017-09-30T23:51:55.496Z,15.50
2017-09-30T23:54:29.358Z,15.50
2017-09-30T23:57:03.111Z,15.30
2017-09-30T23:59:37.884Z,15.30
